Ft Sturla — IBXV — position and weather

sailwx.info

Track history (hours):
 
Tides and Currents Weather Stations Pressure Air Temp Water Temp Dewpoint Dewpoint Depression Visibility Wind Speed Wind Dir Waves Ship Positions

Ft Sturla

Last reported at 2014-Dec-21 03:29 UTC. Time now 2014-Dec-21 04:06 UTC.
Position N 39°20' E 007°60'.

Length 120 m; draft 6.5 m.

Type: Ship (hazmat cat B). MMSI: 247282200.

Date/timePositionNaut miles runAvg speedWind from/ knotsBaromVisibWave heightAir tempDewpointWater temp
2014-Dec-21 03:29N 39°20' E 007°60'1512.7
2014-Dec-21 02:20N 39°34' E 007°54'25711.8
2014-Dec-20 04:31N 43°15' E 004°60'9 9.3
2014-Dec-20 03:33N 43°24' E 005°01'7 0.3
2014-Dec-19 04:16N 43°28' E 005°09'3 4.6
2014-Dec-19 03:33N 43°25' E 005°06'7 6.7
2014-Dec-19 02:33N 43°21' E 004°59'7 7.4
2014-Dec-19 01:33N 43°14' E 005°02'6 6.0
2014-Dec-19 00:31N 43°08' E 004°59'6 6.7
2014-Dec-18 23:33N 43°04' E 004°52'10 9.6
2014-Dec-18 22:30N 43°01' E 004°39'9 9.5
2014-Dec-18 21:33N 42°57' E 004°28'9 9.0
2014-Dec-18 20:34N 42°48' E 004°25'9 8.5
2014-Dec-18 19:34N 42°40' E 004°22'9 9.0
2014-Dec-18 18:33N 42°32' E 004°18'9 9.5
2014-Dec-18 17:33N 42°23' E 004°12'9 9.2
2014-Dec-18 16:33N 42°15' E 004°06'18 8.2
2014-Dec-18 14:24N 41°59' E 003°55'16 8.3
2014-Dec-18 12:25N 41°44' E 003°47'8 8.2
2014-Dec-18 11:25N 41°37' E 003°42'9 9.9
2014-Dec-18 10:30N 41°29' E 003°35'10 9.7
2014-Dec-18 09:30N 41°20' E 003°31'1011.0
2014-Dec-18 08:33N 41°11' E 003°40'1510.9
2014-Dec-18 07:13N 40°59' E 003°49'811.3
2014-Dec-18 06:30N 40°51' E 003°53'58 3.2
2014-Dec-17 12:33N 39°54' E 004°02'1 1.2
2014-Dec-17 11:24N 39°55' E 004°01'0 0.0
2014-Dec-17 10:25N 39°55' E 004°01'0 0.0
2014-Dec-17 09:26N 39°55' E 004°01'0 0.0
2014-Dec-17 08:11N 39°55' E 004°01'0 0.0
2014-Dec-17 07:33N 39°55' E 004°01'24 4.4
2014-Dec-17 02:11N 39°31' E 003°54'711.8
2014-Dec-17 01:33N 39°27' E 003°46'1311.8
2014-Dec-17 00:26N 39°19' E 003°32'1111.7
2014-Dec-16 23:32N 39°14' E 003°21'1212.3
2014-Dec-16 22:33N 39°07' E 003°08'1211.9
2014-Dec-16 21:33N 39°02' E 002°54'1211.8
2014-Dec-16 20:33N 39°11' E 002°44'1212.0
2014-Dec-16 19:33N 39°20' E 002°34'1110.8
2014-Dec-16 18:33N 39°30' E 002°37'3 3.0
2014-Dec-16 17:32N 39°33' E 002°38'0 0.0
2014-Dec-16 16:32N 39°33' E 002°38'0 0.0
2014-Dec-16 15:32N 39°33' E 002°38'0 0.0
2014-Dec-16 14:32N 39°33' E 002°38'0 0.0
2014-Dec-16 13:32N 39°33' E 002°38'0 0.0
2014-Dec-16 12:32N 39°33' E 002°38'0 0.0
2014-Dec-16 11:32N 39°33' E 002°38'0 0.0
2014-Dec-16 10:32N 39°33' E 002°38'0 0.0
2014-Dec-16 09:32N 39°33' E 002°38'0 0.0
2014-Dec-16 08:32N 39°33' E 002°38'0 0.0
2014-Dec-16 07:32N 39°33' E 002°38'0 0.0
2014-Dec-16 06:32N 39°33' E 002°38'0 0.0
2014-Dec-16 05:09N 39°33' E 002°38'0 0.0
2014-Dec-16 04:20N 39°33' E 002°38'0 0.0
2014-Dec-16 03:32N 39°33' E 002°38'0 0.0
2014-Dec-16 01:10N 39°33' E 002°38'6 5.9
2014-Dec-16 00:07N 39°27' E 002°35'610.5
2014-Dec-15 23:33N 39°23' E 002°30'1211.7
2014-Dec-15 22:33N 39°29' E 002°17'1110.9
2014-Dec-15 21:33N 39°39' E 002°11'1212.0
2014-Dec-15 20:33N 39°51' E 002°11'1211.8
2014-Dec-15 19:33N 40°03' E 002°11'1212.1
2014-Dec-15 18:33N 40°15' E 002°11'1212.3
2014-Dec-15 17:33N 40°27' E 002°11'1212.2
2014-Dec-15 16:33N 40°39' E 002°11'1212.2
2014-Dec-15 15:33N 40°51' E 002°11'29 2.2
2014-Dec-15 02:33N 41°20' E 002°10'0 0.0
2014-Dec-15 01:31N 41°20' E 002°10'0 0.0
2014-Dec-15 00:32N 41°20' E 002°10'0 0.0
2014-Dec-14 21:30N 41°20' E 002°10'1 0.1
2014-Dec-14 09:32N 41°19' E 002°11'35 8.5
2014-Dec-14 05:24N 41°01' E 002°51'1012.2
2014-Dec-14 04:33N 40°56' E 003°03'1212.5
2014-Dec-14 03:33N 40°50' E 003°17'1212.3
2014-Dec-14 02:33N 40°44' E 003°32'23210.5
2014-Dec-13 04:26N 38°56' E 007°59'3712.9
2014-Dec-13 01:32N 38°41' E 008°42'1313.0
2014-Dec-13 00:33N 38°36' E 008°58'24411.5
2014-Dec-12 03:26N 36°60' E 013°41'1011.9
2014-Dec-12 02:33N 36°56' E 013°53'1212.1
2014-Dec-12 01:33N 36°50' E 014°06'1111.5
2014-Dec-12 00:33N 36°45' E 014°19'1111.0
2014-Dec-11 23:33N 36°41' E 014°32'1511.5
2014-Dec-11 22:14N 36°37' E 014°50'  
Track history (hours):
 
Tides and Currents Weather Stations Pressure Air Temp Water Temp Dewpoint Dewpoint Depression Visibility Wind Speed Wind Dir Waves Ship Positions

Ft Sturla

Last reported at 2014-Dec-21 03:29 UTC. Time now 2014-Dec-21 04:06 UTC.
Position N 39°20' E 007°60'.

Length 120 m; draft 6.5 m.

Type: Ship (hazmat cat B). MMSI: 247282200.

Date/timePositionNaut miles runAvg speedWind from/ knotsBaromVisibWave heightAir tempDewpointWater temp
2014-Dec-21 03:29N 39°20' E 007°60'1512.7
2014-Dec-21 02:20N 39°34' E 007°54'25711.8
2014-Dec-20 04:31N 43°15' E 004°60'9 9.3
2014-Dec-20 03:33N 43°24' E 005°01'7 0.3
2014-Dec-19 04:16N 43°28' E 005°09'3 4.6
2014-Dec-19 03:33N 43°25' E 005°06'7 6.7
2014-Dec-19 02:33N 43°21' E 004°59'7 7.4
2014-Dec-19 01:33N 43°14' E 005°02'6 6.0
2014-Dec-19 00:31N 43°08' E 004°59'6 6.7
2014-Dec-18 23:33N 43°04' E 004°52'10 9.6
2014-Dec-18 22:30N 43°01' E 004°39'9 9.5
2014-Dec-18 21:33N 42°57' E 004°28'9 9.0
2014-Dec-18 20:34N 42°48' E 004°25'9 8.5
2014-Dec-18 19:34N 42°40' E 004°22'9 9.0
2014-Dec-18 18:33N 42°32' E 004°18'9 9.5
2014-Dec-18 17:33N 42°23' E 004°12'9 9.2
2014-Dec-18 16:33N 42°15' E 004°06'18 8.2
2014-Dec-18 14:24N 41°59' E 003°55'16 8.3
2014-Dec-18 12:25N 41°44' E 003°47'8 8.2
2014-Dec-18 11:25N 41°37' E 003°42'9 9.9
2014-Dec-18 10:30N 41°29' E 003°35'10 9.7
2014-Dec-18 09:30N 41°20' E 003°31'1011.0
2014-Dec-18 08:33N 41°11' E 003°40'1510.9
2014-Dec-18 07:13N 40°59' E 003°49'811.3
2014-Dec-18 06:30N 40°51' E 003°53'58 3.2
2014-Dec-17 12:33N 39°54' E 004°02'1 1.2
2014-Dec-17 11:24N 39°55' E 004°01'0 0.0
2014-Dec-17 10:25N 39°55' E 004°01'0 0.0
2014-Dec-17 09:26N 39°55' E 004°01'0 0.0
2014-Dec-17 08:11N 39°55' E 004°01'0 0.0
2014-Dec-17 07:33N 39°55' E 004°01'24 4.4
2014-Dec-17 02:11N 39°31' E 003°54'711.8
2014-Dec-17 01:33N 39°27' E 003°46'1311.8
2014-Dec-17 00:26N 39°19' E 003°32'1111.7
2014-Dec-16 23:32N 39°14' E 003°21'1212.3
2014-Dec-16 22:33N 39°07' E 003°08'1211.9
2014-Dec-16 21:33N 39°02' E 002°54'1211.8
2014-Dec-16 20:33N 39°11' E 002°44'1212.0
2014-Dec-16 19:33N 39°20' E 002°34'1110.8
2014-Dec-16 18:33N 39°30' E 002°37'3 3.0
2014-Dec-16 17:32N 39°33' E 002°38'0 0.0
2014-Dec-16 16:32N 39°33' E 002°38'0 0.0
2014-Dec-16 15:32N 39°33' E 002°38'0 0.0
2014-Dec-16 14:32N 39°33' E 002°38'0 0.0
2014-Dec-16 13:32N 39°33' E 002°38'0 0.0
2014-Dec-16 12:32N 39°33' E 002°38'0 0.0
2014-Dec-16 11:32N 39°33' E 002°38'0 0.0
2014-Dec-16 10:32N 39°33' E 002°38'0 0.0
2014-Dec-16 09:32N 39°33' E 002°38'0 0.0
2014-Dec-16 08:32N 39°33' E 002°38'0 0.0
2014-Dec-16 07:32N 39°33' E 002°38'0 0.0
2014-Dec-16 06:32N 39°33' E 002°38'0 0.0
2014-Dec-16 05:09N 39°33' E 002°38'0 0.0
2014-Dec-16 04:20N 39°33' E 002°38'0 0.0
2014-Dec-16 03:32N 39°33' E 002°38'0 0.0
2014-Dec-16 01:10N 39°33' E 002°38'6 5.9
2014-Dec-16 00:07N 39°27' E 002°35'610.5
2014-Dec-15 23:33N 39°23' E 002°30'1211.7
2014-Dec-15 22:33N 39°29' E 002°17'1110.9
2014-Dec-15 21:33N 39°39' E 002°11'1212.0
2014-Dec-15 20:33N 39°51' E 002°11'1211.8
2014-Dec-15 19:33N 40°03' E 002°11'1212.1
2014-Dec-15 18:33N 40°15' E 002°11'1212.3
2014-Dec-15 17:33N 40°27' E 002°11'1212.2
2014-Dec-15 16:33N 40°39' E 002°11'1212.2
2014-Dec-15 15:33N 40°51' E 002°11'29 2.2
2014-Dec-15 02:33N 41°20' E 002°10'0 0.0
2014-Dec-15 01:31N 41°20' E 002°10'0 0.0
2014-Dec-15 00:32N 41°20' E 002°10'0 0.0
2014-Dec-14 21:30N 41°20' E 002°10'1 0.1
2014-Dec-14 09:32N 41°19' E 002°11'35 8.5
2014-Dec-14 05:24N 41°01' E 002°51'1012.2
2014-Dec-14 04:33N 40°56' E 003°03'1212.5
2014-Dec-14 03:33N 40°50' E 003°17'1212.3
2014-Dec-14 02:33N 40°44' E 003°32'23210.5
2014-Dec-13 04:26N 38°56' E 007°59'3712.9
2014-Dec-13 01:32N 38°41' E 008°42'1313.0
2014-Dec-13 00:33N 38°36' E 008°58'24411.5
2014-Dec-12 03:26N 36°60' E 013°41'1011.9
2014-Dec-12 02:33N 36°56' E 013°53'1212.1
2014-Dec-12 01:33N 36°50' E 014°06'1111.5
2014-Dec-12 00:33N 36°45' E 014°19'1111.0
2014-Dec-11 23:33N 36°41' E 014°32'1511.5
2014-Dec-11 22:14N 36°37' E 014°50'  

Dump ship's entire track history